createdAt,value
2023-01-06T00:02:21.235Z,1.50
2023-01-06T00:04:48.425Z,1.80
2023-01-06T00:07:15.718Z,1.95
2023-01-06T00:09:42.808Z,1.80
2023-01-06T00:12:09.973Z,1.90
2023-01-06T00:14:37.050Z,2.30
2023-01-06T00:17:04.182Z,1.70
2023-01-06T00:19:31.353Z,1.98
2023-01-06T00:21:58.443Z,1.75
2023-01-06T00:24:25.590Z,2.05
2023-01-06T00:26:52.759Z,2.17
2023-01-06T00:29:19.879Z,2.10
2023-01-06T00:31:46.962Z,2.00
2023-01-06T00:34:14.110Z,2.17
2023-01-06T00:36:41.194Z,1.92
2023-01-06T00:39:08.343Z,1.73
2023-01-06T00:41:54.335Z,1.60
2023-01-06T00:44:21.413Z,1.92
2023-01-06T00:46:48.493Z,1.90
2023-01-06T00:49:15.731Z,1.63
2023-01-06T00:51:43.301Z,1.42
2023-01-06T00:54:11.785Z,1.50
2023-01-06T00:56:39.914Z,2.00
2023-01-06T00:59:07.184Z,1.80
2023-01-06T01:01:35.090Z,1.90
2023-01-06T01:04:02.651Z,1.60
2023-01-06T01:06:29.748Z,1.83
2023-01-06T01:08:57.685Z,1.90
2023-01-06T01:11:43.954Z,1.80
2023-01-06T01:14:12.040Z,2.00
2023-01-06T01:16:39.554Z,1.50
2023-01-06T01:19:06.797Z,0.85
2023-01-06T01:21:33.929Z,1.00
2023-01-06T01:24:01.102Z,1.10
2023-01-06T01:26:28.284Z,1.35
2023-01-06T01:28:55.412Z,2.10
2023-01-06T01:31:22.621Z,2.05
2023-01-06T01:33:50.345Z,2.50
2023-01-06T01:36:18.178Z,2.83
2023-01-06T01:38:45.291Z,3.15
2023-01-06T01:41:17.228Z,3.22
2023-01-06T01:43:48.539Z,2.80
2023-01-06T01:48:42.904Z,4.10
2023-01-06T01:51:12.604Z,3.58
2023-01-06T01:53:43.164Z,4.18
2023-01-06T01:56:12.718Z,4.03
2023-01-06T01:58:54.040Z,3.15
2023-01-06T02:01:21.296Z,3.40
2023-01-06T02:03:48.463Z,3.10
2023-01-06T02:06:18.680Z,2.60
2023-01-06T02:08:49.930Z,2.33
2023-01-06T02:13:47.466Z,2.20
2023-01-06T02:16:14.556Z,2.00
2023-01-06T02:18:41.645Z,2.22
2023-01-06T02:21:15.114Z,2.00
2023-01-06T02:24:01.092Z,2.15
2023-01-06T02:26:43.768Z,2.80
2023-01-06T02:29:10.837Z,3.03
2023-01-06T02:31:49.994Z,2.80
2023-01-06T02:34:27.239Z,2.80
2023-01-06T02:37:13.250Z,3.40
2023-01-06T02:39:47.139Z,2.67
2023-01-06T02:42:18.910Z,3.25
2023-01-06T02:44:46.008Z,2.95
2023-01-06T02:47:28.044Z,2.40
2023-01-06T02:50:13.302Z,3.00
2023-01-06T02:52:51.197Z,2.97
2023-01-06T02:55:24.307Z,3.15
2023-01-06T02:57:54.025Z,3.03
2023-01-06T03:00:24.214Z,3.47
2023-01-06T03:02:55.362Z,2.80
2023-01-06T03:05:23.904Z,3.40
2023-01-06T03:07:52.355Z,3.05
2023-01-06T03:10:21.301Z,3.22
2023-01-06T03:13:07.106Z,3.33
2023-01-06T03:15:34.318Z,3.60
2023-01-06T03:18:01.532Z,4.05
2023-01-06T03:20:28.831Z,4.13
2023-01-06T03:22:55.976Z,3.80
2023-01-06T03:25:23.170Z,4.13
2023-01-06T03:27:50.266Z,3.58
2023-01-06T03:30:17.744Z,4.35
2023-01-06T03:32:49.283Z,4.25
2023-01-06T03:35:16.332Z,4.72
2023-01-06T03:37:49.531Z,3.70
2023-01-06T03:40:35.393Z,3.97
2023-01-06T03:43:11.726Z,4.72
2023-01-06T03:45:41.908Z,4.60
2023-01-06T03:48:12.336Z,5.63
2023-01-06T03:50:43.655Z,4.47
2023-01-06T03:55:39.149Z,4.80
2023-01-06T03:58:07.702Z,4.30
2023-01-06T04:00:37.786Z,5.38
2023-01-06T04:03:09.159Z,5.70
2023-01-06T04:08:03.343Z,3.83
2023-01-06T04:10:30.500Z,5.22
2023-01-06T04:12:57.579Z,5.97
2023-01-06T04:15:26.514Z,6.15
2023-01-06T04:17:53.665Z,5.95
2023-01-06T04:20:22.128Z,6.57
2023-01-06T04:22:49.351Z,6.80
2023-01-06T04:25:16.561Z,6.18
2023-01-06T04:27:44.312Z,6.90
2023-01-06T04:30:11.656Z,6.30
2023-01-06T04:32:38.804Z,6.05
2023-01-06T04:35:06.124Z,7.20
2023-01-06T04:37:33.190Z,6.85
2023-01-06T04:40:00.395Z,6.05
2023-01-06T04:42:27.495Z,6.55
2023-01-06T04:44:54.572Z,6.38
2023-01-06T04:47:21.771Z,5.93
2023-01-06T04:49:48.846Z,6.88
2023-01-06T04:52:16.502Z,6.85
2023-01-06T04:54:43.681Z,7.07
2023-01-06T04:57:10.767Z,6.45
2023-01-06T04:59:37.880Z,7.72
2023-01-06T05:02:05.093Z,7.95
2023-01-06T05:04:46.634Z,7.60
2023-01-06T05:07:14.428Z,7.07
2023-01-06T05:09:41.531Z,6.78
2023-01-06T05:12:08.784Z,7.57
2023-01-06T05:14:35.982Z,8.52
2023-01-06T05:17:03.093Z,8.50
2023-01-06T05:19:30.152Z,7.35
2023-01-06T05:21:57.302Z,7.70
2023-01-06T05:24:24.402Z,7.43
2023-01-06T05:26:51.499Z,8.30
2023-01-06T05:29:18.674Z,7.80
2023-01-06T05:31:45.786Z,7.60
2023-01-06T05:34:12.927Z,7.60
2023-01-06T05:36:40.140Z,8.82
2023-01-06T05:39:07.233Z,8.88
2023-01-06T05:41:34.303Z,8.10
2023-01-06T05:44:01.453Z,8.40
2023-01-06T05:46:28.533Z,7.72
2023-01-06T05:48:55.605Z,7.28
2023-01-06T05:51:22.807Z,8.20
2023-01-06T05:53:49.932Z,8.70
2023-01-06T05:56:18.559Z,8.90
2023-01-06T05:58:46.684Z,7.93
2023-01-06T06:01:18.315Z,7.60
2023-01-06T06:03:45.528Z,6.18
2023-01-06T06:06:12.756Z,6.22
2023-01-06T06:08:40.039Z,6.30
2023-01-06T06:11:08.277Z,7.03
2023-01-06T06:13:35.575Z,7.53
2023-01-06T06:16:13.359Z,6.65
2023-01-06T06:18:44.294Z,7.03
2023-01-06T06:21:15.447Z,5.78
2023-01-06T06:23:42.818Z,5.32
2023-01-06T06:26:10.500Z,4.45
2023-01-06T06:28:38.352Z,4.78
2023-01-06T06:31:09.305Z,5.25
2023-01-06T06:33:36.603Z,5.22
2023-01-06T06:36:04.128Z,4.43
2023-01-06T06:38:31.259Z,5.28
2023-01-06T06:40:58.446Z,5.10
2023-01-06T06:43:25.619Z,5.13
2023-01-06T06:45:52.762Z,5.80
2023-01-06T06:48:19.948Z,5.82
2023-01-06T06:50:47.107Z,4.80
2023-01-06T06:53:14.179Z,5.40
2023-01-06T06:55:41.397Z,3.88
2023-01-06T06:58:08.499Z,3.85
2023-01-06T07:00:35.652Z,4.82
2023-01-06T07:03:02.917Z,5.13
2023-01-06T07:05:30.064Z,4.55
2023-01-06T07:07:57.681Z,4.15
2023-01-06T07:10:24.877Z,4.15
2023-01-06T07:12:52.298Z,3.83
2023-01-06T07:15:19.423Z,3.67
2023-01-06T07:17:46.573Z,4.18
2023-01-06T07:20:13.668Z,3.25
2023-01-06T07:22:41.195Z,3.20
2023-01-06T07:25:09.104Z,3.50
2023-01-06T07:27:36.621Z,3.30
2023-01-06T07:30:05.047Z,2.40
2023-01-06T07:32:32.184Z,3.20
2023-01-06T07:34:59.350Z,3.60
2023-01-06T07:37:26.421Z,3.40
2023-01-06T07:39:53.581Z,3.55
2023-01-06T07:42:20.664Z,3.75
2023-01-06T07:44:47.792Z,3.20
2023-01-06T07:47:15.112Z,4.25
2023-01-06T07:49:42.282Z,4.50
2023-01-06T07:52:09.411Z,3.92
2023-01-06T07:54:36.756Z,4.40
2023-01-06T07:57:04.072Z,3.33
2023-01-06T07:59:31.293Z,3.30
2023-01-06T08:01:58.542Z,4.03
2023-01-06T08:04:25.937Z,4.63
2023-01-06T08:06:53.117Z,4.15
2023-01-06T08:09:20.258Z,4.97
2023-01-06T08:11:47.352Z,3.88
2023-01-06T08:14:14.489Z,5.90
2023-01-06T08:16:42.052Z,6.13
2023-01-06T08:19:09.158Z,6.93
2023-01-06T08:21:36.324Z,6.47
2023-01-06T08:24:03.558Z,5.97
2023-01-06T08:26:30.666Z,6.93
2023-01-06T08:28:57.854Z,7.18
2023-01-06T08:31:25.047Z,9.52
2023-01-06T08:33:53.508Z,7.82
2023-01-06T08:36:21.235Z,9.05
2023-01-06T08:38:48.968Z,8.48
2023-01-06T08:41:16.562Z,10.80
2023-01-06T08:43:45.809Z,11.63
2023-01-06T08:46:14.721Z,11.40
2023-01-06T08:48:41.931Z,11.50
2023-01-06T08:51:13.516Z,10.63
2023-01-06T08:53:40.773Z,10.55
2023-01-06T08:56:15.215Z,9.93
2023-01-06T08:58:42.434Z,10.57
2023-01-06T09:01:19.284Z,10.55
2023-01-06T09:03:46.541Z,8.18
2023-01-06T09:06:14.050Z,8.48
2023-01-06T09:08:41.155Z,9.35
2023-01-06T09:11:09.115Z,9.30
2023-01-06T09:13:36.735Z,7.75
2023-01-06T09:16:07.870Z,7.93
2023-01-06T09:18:35.427Z,8.98
2023-01-06T09:21:02.801Z,7.35
2023-01-06T09:23:30.042Z,8.18
2023-01-06T09:25:58.034Z,8.18
2023-01-06T09:28:25.671Z,9.00
2023-01-06T09:30:52.862Z,8.73
2023-01-06T09:33:20.084Z,8.45
2023-01-06T09:35:47.633Z,7.85
2023-01-06T09:38:15.024Z,8.57
2023-01-06T09:40:54.413Z,7.72
2023-01-06T09:43:36.573Z,7.00
2023-01-06T09:46:04.529Z,8.05
2023-01-06T09:48:37.673Z,8.55
2023-01-06T09:51:06.712Z,8.43
2023-01-06T09:53:39.902Z,9.75
2023-01-06T09:56:09.770Z,7.93
2023-01-06T09:58:39.525Z,8.93
2023-01-06T10:01:08.945Z,7.45
2023-01-06T10:03:36.171Z,7.28
2023-01-06T10:06:35.496Z,8.25
2023-01-06T10:09:07.254Z,8.93
2023-01-06T10:11:53.346Z,7.25
2023-01-06T10:14:20.481Z,6.30
2023-01-06T10:16:55.824Z,6.28
2023-01-06T10:19:34.944Z,6.32
2023-01-06T10:22:09.731Z,5.35
2023-01-06T10:24:36.881Z,6.65
2023-01-06T10:27:22.150Z,5.35
2023-01-06T10:29:49.897Z,4.70
2023-01-06T10:32:17.714Z,4.95
2023-01-06T10:34:48.721Z,4.53
2023-01-06T10:37:24.371Z,4.70
2023-01-06T10:39:55.588Z,5.20
2023-01-06T10:42:53.353Z,4.72
2023-01-06T10:45:21.722Z,4.90
2023-01-06T10:47:50.329Z,4.53
2023-01-06T10:50:18.353Z,3.90
2023-01-06T10:52:46.775Z,5.10
2023-01-06T10:55:19.929Z,3.10
2023-01-06T10:57:47.507Z,4.55
2023-01-06T11:00:14.900Z,3.88
2023-01-06T11:02:46.393Z,4.53
2023-01-06T11:05:14.679Z,3.88
2023-01-06T11:07:50.556Z,4.30
2023-01-06T11:10:37.475Z,4.40
2023-01-06T11:13:05.463Z,3.58
2023-01-06T11:15:42.519Z,3.72
2023-01-06T11:18:21.110Z,2.90
2023-01-06T11:21:01.735Z,3.50
2023-01-06T11:23:29.766Z,2.97
2023-01-06T11:26:06.058Z,3.75
2023-01-06T11:28:33.574Z,5.80
2023-01-06T11:31:11.284Z,2.90
2023-01-06T11:33:47.434Z,3.45
2023-01-06T11:36:15.446Z,3.05
2023-01-06T11:38:50.741Z,2.95
2023-01-06T11:41:29.326Z,3.20
2023-01-06T11:43:58.203Z,2.88
2023-01-06T11:46:26.096Z,3.42
2023-01-06T11:48:59.412Z,3.35
2023-01-06T11:51:53.223Z,2.72
2023-01-06T11:54:32.696Z,3.65
2023-01-06T11:57:18.251Z,3.15
2023-01-06T12:00:05.264Z,3.03
2023-01-06T12:02:48.926Z,2.92
2023-01-06T12:05:26.349Z,2.95
2023-01-06T12:07:55.675Z,3.08
2023-01-06T12:10:25.081Z,3.45
2023-01-06T12:12:52.342Z,3.75
2023-01-06T12:15:19.934Z,3.50
2023-01-06T12:17:53.208Z,3.72
2023-01-06T12:20:26.491Z,3.13
2023-01-06T12:23:06.677Z,3.88
2023-01-06T12:25:35.844Z,3.17
2023-01-06T12:28:04.640Z,2.70
2023-01-06T12:30:54.570Z,3.55
2023-01-06T12:33:33.496Z,3.33
2023-01-06T12:36:02.841Z,3.53
2023-01-06T12:38:48.741Z,2.83
2023-01-06T12:41:34.415Z,3.45
2023-01-06T12:44:06.053Z,3.15
2023-01-06T12:46:40.144Z,3.00
2023-01-06T12:49:13.869Z,2.70
2023-01-06T12:51:44.632Z,3.30
2023-01-06T12:54:19.636Z,3.30
2023-01-06T12:56:58.102Z,3.47
2023-01-06T12:59:46.592Z,3.92
2023-01-06T13:02:20.001Z,3.78
2023-01-06T13:05:06.263Z,4.43
2023-01-06T13:07:36.206Z,4.75
2023-01-06T13:10:07.072Z,4.40
2023-01-06T13:12:34.134Z,4.18
2023-01-06T13:15:05.600Z,5.20
2023-01-06T13:17:37.393Z,5.07
2023-01-06T13:20:06.407Z,5.03
2023-01-06T13:22:52.541Z,4.50
2023-01-06T13:25:39.255Z,4.82
2023-01-06T13:28:18.230Z,4.78
2023-01-06T13:30:48.435Z,4.95
2023-01-06T13:33:29.247Z,4.75
2023-01-06T13:35:56.425Z,5.13
2023-01-06T13:38:26.652Z,4.82
2023-01-06T13:40:54.108Z,4.90
2023-01-06T13:43:24.363Z,5.00
2023-01-06T13:45:54.772Z,4.22
2023-01-06T13:48:23.558Z,4.17
2023-01-06T13:50:51.043Z,5.13
2023-01-06T13:53:19.609Z,3.90
2023-01-06T13:55:46.791Z,3.85
2023-01-06T13:58:26.768Z,3.70
2023-01-06T14:01:09.140Z,2.75
2023-01-06T14:03:37.199Z,2.95
2023-01-06T14:06:05.941Z,3.45
2023-01-06T14:08:35.465Z,2.92
2023-01-06T14:11:07.460Z,3.33
2023-01-06T14:13:40.598Z,2.95
2023-01-06T14:16:12.456Z,3.40
2023-01-06T14:18:43.986Z,3.00
2023-01-06T14:21:11.035Z,2.90
2023-01-06T14:23:38.269Z,2.17
2023-01-06T14:26:05.730Z,2.85
2023-01-06T14:28:34.709Z,3.65
2023-01-06T14:31:20.763Z,3.35
2023-01-06T14:33:52.576Z,3.47
2023-01-06T14:36:19.985Z,2.95
2023-01-06T14:38:52.710Z,2.78
2023-01-06T14:41:22.694Z,3.42
2023-01-06T14:43:52.707Z,3.28
2023-01-06T14:46:38.562Z,3.40
2023-01-06T14:49:08.072Z,3.20
2023-01-06T14:51:35.595Z,3.63
2023-01-06T14:54:16.251Z,2.65
2023-01-06T14:56:52.463Z,3.10
2023-01-06T14:59:21.288Z,3.80
2023-01-06T15:01:56.751Z,3.28
2023-01-06T15:04:30.201Z,3.22
2023-01-06T15:06:58.867Z,3.10
2023-01-06T15:09:26.073Z,2.45
2023-01-06T15:11:53.385Z,2.60
2023-01-06T15:14:33.979Z,2.83
2023-01-06T15:17:02.581Z,2.58
2023-01-06T15:19:30.767Z,2.28
2023-01-06T15:21:58.451Z,2.25
2023-01-06T15:24:32.043Z,2.15
2023-01-06T15:27:05.065Z,2.10
2023-01-06T15:29:32.292Z,2.05
2023-01-06T15:31:59.874Z,2.45
2023-01-06T15:34:34.844Z,2.50
2023-01-06T15:37:03.137Z,2.42
2023-01-06T15:39:31.334Z,2.33
2023-01-06T15:41:59.233Z,2.40
2023-01-06T15:44:26.616Z,2.85
2023-01-06T15:46:55.473Z,2.65
2023-01-06T15:49:30.687Z,3.13
2023-01-06T15:51:59.279Z,2.88
2023-01-06T15:54:27.667Z,2.92
2023-01-06T15:56:55.699Z,3.17
2023-01-06T15:59:23.162Z,3.22
2023-01-06T16:01:54.742Z,2.80
2023-01-06T16:04:23.217Z,3.50
2023-01-06T16:06:50.448Z,3.22
2023-01-06T16:09:25.909Z,3.08
2023-01-06T16:12:07.680Z,4.30
2023-01-06T16:14:35.881Z,3.90
2023-01-06T16:17:03.022Z,3.58
2023-01-06T16:19:30.424Z,3.47
2023-01-06T16:21:58.813Z,3.75
2023-01-06T16:24:27.387Z,3.85
2023-01-06T16:26:56.624Z,4.50
2023-01-06T16:29:25.783Z,3.10
2023-01-06T16:31:52.908Z,3.53
2023-01-06T16:34:22.736Z,4.00
2023-01-06T16:36:50.517Z,3.03
2023-01-06T16:39:17.677Z,3.30
2023-01-06T16:42:25.049Z,3.17
2023-01-06T16:45:00.498Z,3.30
2023-01-06T16:47:27.731Z,2.90
2023-01-06T16:49:54.821Z,2.72
2023-01-06T16:52:22.234Z,3.22
2023-01-06T16:54:53.674Z,2.95
2023-01-06T16:57:21.145Z,3.30
2023-01-06T16:59:48.290Z,3.22
2023-01-06T17:02:16.489Z,2.97
2023-01-06T17:04:44.294Z,3.58
2023-01-06T17:07:13.666Z,4.00
2023-01-06T17:09:41.001Z,4.20
2023-01-06T17:12:35.430Z,4.50
2023-01-06T17:15:02.617Z,4.65
2023-01-06T17:17:29.725Z,13.18
2023-01-06T17:19:56.881Z,3.70
2023-01-06T17:22:24.202Z,4.63
2023-01-06T17:24:51.318Z,4.75
2023-01-06T17:27:28.618Z,5.03
2023-01-06T17:29:56.596Z,4.35
2023-01-06T17:32:27.477Z,4.05
2023-01-06T17:34:55.909Z,4.72
2023-01-06T17:37:24.019Z,4.53
2023-01-06T17:39:51.126Z,5.30
2023-01-06T17:42:18.277Z,4.72
2023-01-06T17:44:48.553Z,4.75
2023-01-06T17:47:15.710Z,3.57
2023-01-06T17:49:56.303Z,3.05
2023-01-06T17:52:24.473Z,2.75
2023-01-06T17:55:18.185Z,3.10
2023-01-06T17:57:47.304Z,3.53
2023-01-06T18:00:23.291Z,3.92
2023-01-06T18:02:55.615Z,3.90
2023-01-06T18:05:22.677Z,3.60
2023-01-06T18:07:50.629Z,3.05
2023-01-06T18:10:19.491Z,2.60
2023-01-06T18:12:46.935Z,3.15
2023-01-06T18:15:33.009Z,3.40
2023-01-06T18:18:01.949Z,2.97
2023-01-06T18:20:32.194Z,3.00
2023-01-06T18:22:59.344Z,2.88
2023-01-06T18:25:27.531Z,2.95
2023-01-06T18:27:54.701Z,3.08
2023-01-06T18:30:30.197Z,3.33
2023-01-06T18:32:57.308Z,3.10
2023-01-06T18:35:27.757Z,3.10
2023-01-06T18:37:55.394Z,3.70
2023-01-06T18:40:24.359Z,3.88
2023-01-06T18:42:52.308Z,3.85
2023-01-06T18:45:22.729Z,2.53
2023-01-06T18:48:10.098Z,3.55
2023-01-06T18:50:44.102Z,3.97
2023-01-06T18:53:14.249Z,3.60
2023-01-06T18:55:45.759Z,2.85
2023-01-06T18:58:12.839Z,3.45
2023-01-06T19:00:46.184Z,3.10
2023-01-06T19:03:29.908Z,3.30
2023-01-06T19:06:07.377Z,3.33
2023-01-06T19:08:35.371Z,3.55
2023-01-06T19:11:02.941Z,3.42
2023-01-06T19:13:30.415Z,3.95
2023-01-06T19:16:04.603Z,3.42
2023-01-06T19:18:33.924Z,3.88
2023-01-06T19:21:01.946Z,2.63
2023-01-06T19:23:29.108Z,3.00
2023-01-06T19:26:06.153Z,3.35
2023-01-06T19:28:34.809Z,3.50
2023-01-06T19:31:02.817Z,3.50
2023-01-06T19:33:39.251Z,3.92
2023-01-06T19:36:06.320Z,4.30
2023-01-06T19:38:38.463Z,3.88
2023-01-06T19:41:14.439Z,3.00
2023-01-06T19:43:41.572Z,3.65
2023-01-06T19:46:18.502Z,3.15
2023-01-06T19:48:46.135Z,3.70
2023-01-06T19:51:23.779Z,3.85
2023-01-06T19:53:52.124Z,4.20
2023-01-06T19:56:21.893Z,3.53
2023-01-06T19:58:54.042Z,3.70
2023-01-06T20:01:22.948Z,3.33
2023-01-06T20:03:51.123Z,3.13
2023-01-06T20:06:18.271Z,3.40
2023-01-06T20:08:45.530Z,3.30
2023-01-06T20:11:12.989Z,3.40
2023-01-06T20:13:40.221Z,3.38
2023-01-06T20:16:07.649Z,3.45
2023-01-06T20:18:34.907Z,3.65
2023-01-06T20:21:02.179Z,3.42
2023-01-06T20:23:29.292Z,2.88
2023-01-06T20:25:56.403Z,3.25
2023-01-06T20:28:24.156Z,3.17
2023-01-06T20:30:51.465Z,3.65
2023-01-06T20:33:18.540Z,2.92
2023-01-06T20:35:45.727Z,3.85
2023-01-06T20:38:12.882Z,2.97
2023-01-06T20:40:40.071Z,3.50
2023-01-06T20:43:07.333Z,3.88
2023-01-06T20:45:34.855Z,3.85
2023-01-06T20:48:02.376Z,4.00
2023-01-06T20:50:29.829Z,4.15
2023-01-06T20:52:56.915Z,4.13
2023-01-06T20:55:24.249Z,3.75
2023-01-06T20:57:51.707Z,4.18
2023-01-06T21:00:18.892Z,4.00
2023-01-06T21:02:46.026Z,3.75
2023-01-06T21:05:13.302Z,3.60
2023-01-06T21:07:40.653Z,3.53
2023-01-06T21:10:08.644Z,3.08
2023-01-06T21:12:35.881Z,3.65
2023-01-06T21:15:03.031Z,3.97
2023-01-06T21:17:30.157Z,3.97
2023-01-06T21:19:57.331Z,4.03
2023-01-06T21:22:24.599Z,4.30
2023-01-06T21:24:51.661Z,4.75
2023-01-06T21:27:28.165Z,5.07
2023-01-06T21:29:55.311Z,4.82
2023-01-06T21:32:22.436Z,5.40
2023-01-06T21:34:50.043Z,5.10
2023-01-06T21:37:17.764Z,4.93
2023-01-06T21:39:47.789Z,5.35
2023-01-06T21:42:33.707Z,5.93
2023-01-06T21:45:00.854Z,4.35
2023-01-06T21:47:27.979Z,5.22
2023-01-06T21:49:55.140Z,5.50
2023-01-06T21:52:22.281Z,5.63
2023-01-06T21:54:49.474Z,4.47
2023-01-06T21:57:16.730Z,5.28
2023-01-06T21:59:44.402Z,6.03
2023-01-06T22:02:12.488Z,5.32
2023-01-06T22:04:39.837Z,5.57
2023-01-06T22:07:09.327Z,5.05
2023-01-06T22:09:37.127Z,5.93
2023-01-06T22:12:05.183Z,5.80
2023-01-06T22:14:32.714Z,5.57
2023-01-06T22:17:01.124Z,5.63
2023-01-06T22:19:29.140Z,5.13
2023-01-06T22:21:56.612Z,5.13
2023-01-06T22:24:24.797Z,5.40
2023-01-06T22:26:51.985Z,4.68
2023-01-06T22:29:19.098Z,5.13
2023-01-06T22:31:46.199Z,4.27
2023-01-06T22:34:13.513Z,4.57
2023-01-06T22:36:40.661Z,3.63
2023-01-06T22:39:07.790Z,5.00
2023-01-06T22:41:35.264Z,5.17
2023-01-06T22:44:02.389Z,4.50
2023-01-06T22:46:30.196Z,4.20
2023-01-06T22:48:58.020Z,4.37
2023-01-06T22:51:26.768Z,4.80
2023-01-06T22:53:53.882Z,3.33
2023-01-06T22:56:21.161Z,3.93
2023-01-06T22:58:48.237Z,4.33
2023-01-06T23:01:15.403Z,4.23
2023-01-06T23:03:42.688Z,3.63
2023-01-06T23:06:14.107Z,3.70
2023-01-06T23:08:51.053Z,4.57
2023-01-06T23:11:22.701Z,3.75
2023-01-06T23:13:49.928Z,4.03
2023-01-06T23:16:19.088Z,3.63
2023-01-06T23:18:47.146Z,4.87
2023-01-06T23:21:21.494Z,3.50
2023-01-06T23:23:48.977Z,4.60
2023-01-06T23:26:17.257Z,4.13
2023-01-06T23:28:44.779Z,4.90
2023-01-06T23:31:13.496Z,4.07
2023-01-06T23:33:45.235Z,4.33
2023-01-06T23:36:13.268Z,4.47
2023-01-06T23:38:40.716Z,5.00
2023-01-06T23:41:09.615Z,4.20
2023-01-06T23:43:37.442Z,5.30
2023-01-06T23:46:08.601Z,4.33
2023-01-06T23:51:03.396Z,4.53
2023-01-06T23:53:30.817Z,4.57
2023-01-06T23:55:59.036Z,5.20
2023-01-06T23:58:26.685Z,4.50
